createdAt,value
2018-04-23T00:01:00.339Z,100728.73
2018-04-23T00:03:29.553Z,100745.23
2018-04-23T00:05:57.959Z,100746.30
2018-04-23T00:08:26.355Z,100742.94
2018-04-23T00:10:55.567Z,100741.60
2018-04-23T00:13:24.717Z,100742.97
2018-04-23T00:15:53.882Z,100736.62
2018-04-23T00:18:22.328Z,100737.16
2018-04-23T00:20:50.735Z,100724.17
2018-04-23T00:23:19.915Z,100710.63
2018-04-23T00:25:48.310Z,100677.16
2018-04-23T00:28:17.478Z,100660.22
2018-04-23T00:30:45.861Z,100655.07
2018-04-23T00:33:14.241Z,100636.38
2018-04-23T00:35:42.646Z,100630.36
2018-04-23T00:38:11.034Z,100619.52
2018-04-23T00:40:39.438Z,100619.57
2018-04-23T00:43:08.605Z,100618.23
2018-04-23T00:45:37.023Z,100635.05
2018-04-23T00:48:06.177Z,100640.02
2018-04-23T00:50:34.583Z,100637.43
2018-04-23T00:53:20.741Z,100637.03
2018-04-23T00:55:49.183Z,100639.55
2018-04-23T00:58:18.334Z,100639.53
2018-04-23T01:00:46.751Z,100642.19
2018-04-23T01:03:15.129Z,100647.44
2018-04-23T01:05:44.326Z,100651.80
2018-04-23T01:08:12.718Z,100644.82
2018-04-23T01:10:41.175Z,100639.56
2018-04-23T01:13:09.555Z,100633.05
2018-04-23T01:15:37.958Z,100628.76
2018-04-23T01:18:06.353Z,100632.69
2018-04-23T01:20:34.763Z,100645.80
2018-04-23T01:23:03.149Z,100651.47
2018-04-23T01:25:31.542Z,100664.59
2018-04-23T01:27:59.930Z,100663.72
2018-04-23T01:30:28.419Z,100682.07
2018-04-23T01:32:56.834Z,100683.40
2018-04-23T01:35:25.269Z,100682.53
2018-04-23T01:37:53.658Z,100687.77
2018-04-23T01:40:22.052Z,100692.13
2018-04-23T01:42:50.442Z,100690.84
2018-04-23T01:45:18.817Z,100696.92
2018-04-23T01:47:47.293Z,100692.98
2018-04-23T01:50:15.691Z,100692.98
2018-04-23T01:52:44.130Z,100696.48
2018-04-23T01:55:13.268Z,100695.59
2018-04-23T01:57:41.667Z,100699.08
2018-04-23T02:00:10.080Z,100701.63
2018-04-23T02:02:38.471Z,100708.18
2018-04-23T02:05:07.831Z,100711.63
2018-04-23T02:07:36.212Z,100716.88
2018-04-23T02:10:04.590Z,100708.53
2018-04-23T02:12:32.971Z,100714.53
2018-04-23T02:15:01.466Z,100716.31
2018-04-23T02:17:29.901Z,100719.40
2018-04-23T02:19:59.069Z,100721.60
2018-04-23T02:22:28.291Z,100719.80
2018-04-23T02:24:56.687Z,100719.32
2018-04-23T02:27:25.081Z,100717.17
2018-04-23T02:29:54.259Z,100710.63
2018-04-23T02:32:22.670Z,100714.55
2018-04-23T02:34:51.827Z,100717.17
2018-04-23T02:37:20.230Z,100711.02
2018-04-23T02:39:48.623Z,100721.89
2018-04-23T02:42:17.795Z,100718.83
2018-04-23T02:44:46.179Z,100723.17
2018-04-23T02:47:14.590Z,100733.20
2018-04-23T02:49:43.034Z,100743.25
2018-04-23T02:52:11.462Z,100754.18
2018-04-23T02:54:39.839Z,100755.44
2018-04-23T02:57:08.221Z,100744.55
2018-04-23T02:59:36.655Z,100739.31
2018-04-23T03:02:05.038Z,100745.44
2018-04-23T03:04:33.466Z,100748.49
2018-04-23T03:07:01.842Z,100748.91
2018-04-23T03:09:30.222Z,100756.73
2018-04-23T03:11:58.638Z,100758.41
2018-04-23T03:14:27.822Z,100754.52
2018-04-23T03:16:56.238Z,100762.87
2018-04-23T03:19:24.636Z,100761.98
2018-04-23T03:21:53.025Z,100770.33
2018-04-23T03:24:21.414Z,100778.61
2018-04-23T03:26:49.876Z,100765.08
2018-04-23T03:29:18.267Z,100762.94
2018-04-23T03:31:46.685Z,100764.73
2018-04-23T03:34:15.076Z,100775.25
2018-04-23T03:36:43.593Z,100771.78
2018-04-23T03:39:12.769Z,100774.38
2018-04-23T03:41:41.166Z,100769.64
2018-04-23T03:44:10.358Z,100773.98
2018-04-23T03:46:38.745Z,100765.28
2018-04-23T03:49:07.146Z,100763.97
2018-04-23T03:51:36.320Z,100753.08
2018-04-23T03:54:04.703Z,100761.39
2018-04-23T03:56:33.178Z,100761.39
2018-04-23T03:59:02.340Z,100774.04
2018-04-23T04:01:30.759Z,100774.47
2018-04-23T04:03:59.191Z,100757.49
2018-04-23T04:06:27.576Z,100749.20
2018-04-23T04:08:55.963Z,100747.48
2018-04-23T04:11:24.365Z,100753.14
2018-04-23T04:14:10.509Z,100757.06
2018-04-23T04:16:57.303Z,100757.08
2018-04-23T04:19:25.705Z,100750.11
2018-04-23T04:21:54.070Z,100738.78
2018-04-23T04:24:22.469Z,100748.75
2018-04-23T04:26:51.631Z,100772.30
2018-04-23T04:29:20.025Z,100779.27
2018-04-23T04:31:48.433Z,100778.38
2018-04-23T04:34:17.622Z,100767.52
2018-04-23T04:36:46.017Z,100777.98
2018-04-23T04:39:15.184Z,100778.79
2018-04-23T04:41:44.356Z,100774.88
2018-04-23T04:44:12.730Z,100777.52
2018-04-23T04:46:41.905Z,100774.44
2018-04-23T04:49:11.061Z,100779.22
2018-04-23T04:51:39.470Z,100784.48
2018-04-23T04:54:07.909Z,100784.45
2018-04-23T04:56:36.308Z,100797.11
2018-04-23T04:59:04.768Z,100800.99
2018-04-23T05:01:33.113Z,100804.91
2018-04-23T05:04:01.491Z,100804.50
2018-04-23T05:06:29.917Z,100805.80
2018-04-23T05:08:58.297Z,100801.85
2018-04-23T05:11:26.714Z,100804.48
2018-04-23T05:13:55.881Z,100809.69
2018-04-23T05:16:24.389Z,100807.98
2018-04-23T05:18:52.806Z,100819.71
2018-04-23T05:21:21.209Z,100827.55
2018-04-23T05:23:50.408Z,100827.59
2018-04-23T05:26:18.733Z,100831.07
2018-04-23T05:28:47.379Z,100830.63
2018-04-23T05:31:16.530Z,100830.69
2018-04-23T05:33:45.785Z,100838.97
2018-04-23T05:36:14.958Z,100837.23
2018-04-23T05:38:43.362Z,100840.70
2018-04-23T05:41:11.762Z,100845.92
2018-04-23T05:43:40.917Z,100849.83
2018-04-23T05:46:09.339Z,100848.54
2018-04-23T05:48:38.493Z,100851.06
2018-04-23T05:51:06.918Z,100848.94
2018-04-23T05:53:36.101Z,100853.27
2018-04-23T05:56:04.513Z,100852.39
2018-04-23T05:58:33.688Z,100852.41
2018-04-23T06:01:02.080Z,100858.50
2018-04-23T06:03:30.481Z,100859.80
2018-04-23T06:05:59.718Z,100855.42
2018-04-23T06:08:28.090Z,100864.52
2018-04-23T06:10:56.476Z,100862.30
2018-04-23T06:13:24.880Z,100868.52
2018-04-23T06:15:53.263Z,100872.84
2018-04-23T06:18:21.684Z,100870.59
2018-04-23T06:20:50.059Z,100875.86
2018-04-23T06:23:18.452Z,100882.00
2018-04-23T06:25:46.830Z,100881.55
2018-04-23T06:28:15.216Z,100881.52
2018-04-23T06:30:43.606Z,100888.53
2018-04-23T06:33:12.850Z,100895.48
2018-04-23T06:35:41.229Z,100898.05
2018-04-23T06:38:09.629Z,100893.61
2018-04-23T06:40:38.030Z,100897.23
2018-04-23T06:43:07.229Z,100900.56
2018-04-23T06:45:35.677Z,100901.41
2018-04-23T06:48:04.050Z,100902.25
2018-04-23T06:50:32.460Z,100897.84
2018-04-23T06:53:01.629Z,100905.14
2018-04-23T06:55:30.785Z,100912.78
2018-04-23T06:57:59.292Z,100916.88
2018-04-23T07:00:27.731Z,100909.44
2018-04-23T07:02:56.126Z,100918.89
2018-04-23T07:05:24.585Z,100920.91
2018-04-23T07:07:52.965Z,100924.00
2018-04-23T07:10:21.367Z,100936.78
2018-04-23T07:12:49.742Z,100934.01
2018-04-23T07:15:18.907Z,100935.80
2018-04-23T07:17:48.105Z,100927.17
2018-04-23T07:20:16.570Z,100923.38
2018-04-23T07:22:44.957Z,100927.64
2018-04-23T07:25:13.417Z,100930.50
2018-04-23T07:27:41.797Z,100923.00
2018-04-23T07:30:10.183Z,100926.19
2018-04-23T07:32:38.569Z,100925.37
2018-04-23T07:35:07.021Z,100925.00
2018-04-23T07:37:35.435Z,100921.48
2018-04-23T07:40:03.839Z,100922.41
2018-04-23T07:42:32.234Z,100926.02
2018-04-23T07:45:00.618Z,100928.66
2018-04-23T07:47:29.021Z,100927.97
2018-04-23T07:49:58.181Z,100933.27
2018-04-23T07:52:26.579Z,100932.24
2018-04-23T07:54:54.974Z,100938.27
2018-04-23T07:57:23.348Z,100947.70
2018-04-23T07:59:51.847Z,100944.55
2018-04-23T08:02:20.989Z,100945.77
2018-04-23T08:04:49.389Z,100948.83
2018-04-23T08:07:17.770Z,100950.17
2018-04-23T08:09:46.175Z,100954.88
2018-04-23T08:12:14.585Z,100955.02
2018-04-23T08:14:43.041Z,100953.01
2018-04-23T08:17:11.486Z,100952.12
2018-04-23T08:19:39.958Z,100960.62
2018-04-23T08:22:08.355Z,100958.61
2018-04-23T08:24:36.726Z,100964.98
2018-04-23T08:27:05.116Z,100957.30
2018-04-23T08:29:33.495Z,100963.59
2018-04-23T08:32:01.964Z,100970.67
2018-04-23T08:34:31.091Z,100974.14
2018-04-23T08:36:59.497Z,100973.73
2018-04-23T08:39:27.898Z,100980.13
2018-04-23T08:41:56.306Z,100976.58
2018-04-23T08:44:25.449Z,100971.27
2018-04-23T08:46:53.860Z,100977.92
2018-04-23T08:49:23.020Z,100985.48
2018-04-23T08:51:51.423Z,100985.29
2018-04-23T08:54:19.803Z,100981.91
2018-04-23T08:56:48.184Z,100988.38
2018-04-23T08:59:16.589Z,100982.33
2018-04-23T09:01:44.986Z,100980.83
2018-04-23T09:04:13.362Z,100983.63
2018-04-23T09:06:41.753Z,100983.86
2018-04-23T09:09:10.142Z,100990.11
2018-04-23T09:11:38.581Z,100997.95
2018-04-23T09:14:06.964Z,100994.66
2018-04-23T09:16:35.385Z,100996.27
2018-04-23T09:19:03.789Z,100998.33
2018-04-23T09:21:33.153Z,100994.05
2018-04-23T09:24:01.554Z,100998.79
2018-04-23T09:26:29.934Z,101007.03
2018-04-23T09:28:58.343Z,101004.34
2018-04-23T09:31:26.718Z,101006.43
2018-04-23T09:33:55.931Z,101009.27
2018-04-23T09:36:25.098Z,101013.59
2018-04-23T09:38:53.635Z,101014.05
2018-04-23T09:41:22.828Z,101015.27
2018-04-23T09:43:51.993Z,101012.84
2018-04-23T09:46:20.375Z,101018.95
2018-04-23T09:48:48.774Z,101025.56
2018-04-23T09:51:17.173Z,101024.58
2018-04-23T09:53:46.353Z,101019.86
2018-04-23T09:56:14.756Z,101016.08
2018-04-23T09:58:43.923Z,101023.33
2018-04-23T10:01:17.590Z,101025.83
2018-04-23T10:03:55.899Z,101028.53
2018-04-23T10:06:24.306Z,101025.84
2018-04-23T10:08:52.722Z,101033.48
2018-04-23T10:11:21.135Z,101027.62
2018-04-23T10:13:49.528Z,101033.94
2018-04-23T10:16:17.913Z,101035.52
2018-04-23T10:18:46.308Z,101037.92
2018-04-23T10:21:14.732Z,101034.30
2018-04-23T10:23:43.114Z,101044.09
2018-04-23T10:26:11.577Z,101043.00
2018-04-23T10:28:39.982Z,101044.55
2018-04-23T10:31:08.384Z,101047.48
2018-04-23T10:33:36.786Z,101037.94
2018-04-23T10:36:05.958Z,101045.36
2018-04-23T10:38:34.337Z,101042.66
2018-04-23T10:41:02.768Z,101039.33
2018-04-23T10:43:31.147Z,101043.84
2018-04-23T10:45:59.626Z,101052.12
2018-04-23T10:48:28.034Z,101041.59
2018-04-23T10:50:56.557Z,101040.78
2018-04-23T10:53:24.923Z,101034.38
2018-04-23T10:55:53.331Z,101038.48
2018-04-23T10:58:21.734Z,101043.89
2018-04-23T11:00:50.867Z,101040.97
2018-04-23T11:03:19.277Z,101040.61
2018-04-23T11:05:47.659Z,101035.20
2018-04-23T11:08:16.041Z,101043.28
2018-04-23T11:10:44.411Z,101031.38
2018-04-23T11:13:12.810Z,101031.83
2018-04-23T11:15:41.256Z,101035.80
2018-04-23T11:18:09.654Z,101036.09
2018-04-23T11:20:38.048Z,101034.83
2018-04-23T11:23:06.469Z,101038.54
2018-04-23T11:25:34.888Z,101036.35
2018-04-23T11:28:03.265Z,101031.92
2018-04-23T11:30:31.761Z,101047.87
2018-04-23T11:33:00.153Z,101045.27
2018-04-23T11:35:28.545Z,101049.02
2018-04-23T11:37:56.949Z,101052.73
2018-04-23T11:40:25.413Z,101063.86
2018-04-23T11:42:53.807Z,101065.83
2018-04-23T11:45:22.185Z,101060.84
2018-04-23T11:47:50.578Z,101070.72
2018-04-23T11:50:18.985Z,101060.18
2018-04-23T11:52:47.386Z,101052.86
2018-04-23T11:55:16.544Z,101056.34
2018-04-23T11:57:44.948Z,101052.60
2018-04-23T12:00:13.337Z,101052.41
2018-04-23T12:02:41.760Z,101048.03
2018-04-23T12:05:10.184Z,101051.33
2018-04-23T12:07:39.340Z,101057.77
2018-04-23T12:10:07.829Z,101059.05
2018-04-23T12:12:36.201Z,101052.91
2018-04-23T12:15:05.366Z,101049.38
2018-04-23T12:17:33.762Z,101042.34
2018-04-23T12:20:02.143Z,101044.16
2018-04-23T12:22:30.529Z,101048.81
2018-04-23T12:24:58.954Z,101050.23
2018-04-23T12:27:27.361Z,101043.34
2018-04-23T12:29:55.753Z,101045.99
2018-04-23T12:32:24.136Z,101043.77
2018-04-23T12:34:53.285Z,101046.11
2018-04-23T12:37:22.445Z,101041.47
2018-04-23T12:39:50.846Z,101046.46
2018-04-23T12:42:19.228Z,101039.75
2018-04-23T12:44:47.666Z,101042.19
2018-04-23T12:47:16.070Z,101037.70
2018-04-23T12:49:44.465Z,101038.31
2018-04-23T12:52:12.864Z,101040.95
2018-04-23T12:54:41.239Z,101030.52
2018-04-23T12:57:10.390Z,101020.04
2018-04-23T12:59:38.793Z,101023.65
2018-04-23T13:02:07.186Z,101018.41
2018-04-23T13:04:35.572Z,101022.44
2018-04-23T13:07:04.008Z,101030.91
2018-04-23T13:09:32.395Z,101024.95
2018-04-23T13:12:00.799Z,101024.23
2018-04-23T13:14:29.223Z,101023.86
2018-04-23T13:16:57.607Z,101018.48
2018-04-23T13:19:25.998Z,101015.00
2018-04-23T13:21:54.418Z,101013.48
2018-04-23T13:24:22.838Z,101024.61
2018-04-23T13:26:51.210Z,101015.72
2018-04-23T13:29:19.602Z,101025.48
2018-04-23T13:31:47.975Z,101017.13
2018-04-23T13:34:16.348Z,101013.27
2018-04-23T13:36:44.779Z,101007.48
2018-04-23T13:39:13.175Z,100998.61
2018-04-23T13:41:41.558Z,100998.88
2018-04-23T13:44:10.714Z,100998.25
2018-04-23T13:46:39.094Z,101000.53
2018-04-23T13:49:07.482Z,100992.88
2018-04-23T13:51:35.858Z,100991.34
2018-04-23T13:54:04.233Z,100986.95
2018-04-23T13:56:32.605Z,100988.63
2018-04-23T13:59:00.998Z,100990.97
2018-04-23T14:01:29.436Z,100992.83
2018-04-23T14:03:57.819Z,100993.33
2018-04-23T14:06:26.206Z,100998.53
2018-04-23T14:08:55.350Z,100989.22
2018-04-23T14:11:23.726Z,100989.17
2018-04-23T14:13:52.132Z,100983.02
2018-04-23T14:16:20.517Z,100965.87
2018-04-23T14:18:49.032Z,100961.88
2018-04-23T14:21:17.449Z,100972.92
2018-04-23T14:23:45.876Z,100973.56
2018-04-23T14:26:14.305Z,100975.73
2018-04-23T14:28:43.485Z,100982.84
2018-04-23T14:31:11.861Z,100988.06
2018-04-23T14:33:40.283Z,100989.41
2018-04-23T14:36:09.437Z,100980.59
2018-04-23T14:38:37.842Z,100981.46
2018-04-23T14:41:06.238Z,100983.33
2018-04-23T14:43:35.424Z,100980.88
2018-04-23T14:46:03.848Z,100973.42
2018-04-23T14:48:32.256Z,100984.09
2018-04-23T14:51:00.682Z,100978.80
2018-04-23T14:53:29.153Z,100977.56
2018-04-23T14:55:57.555Z,100987.67
2018-04-23T14:58:26.697Z,100994.14
2018-04-23T15:00:55.095Z,100992.08
2018-04-23T15:03:23.499Z,100991.14
2018-04-23T15:05:51.897Z,100989.72
2018-04-23T15:08:20.328Z,100983.67
2018-04-23T15:10:49.531Z,100990.27
2018-04-23T15:13:17.933Z,100998.98
2018-04-23T15:15:46.290Z,100992.84
2018-04-23T15:18:14.670Z,101000.77
2018-04-23T15:20:43.118Z,100996.58
2018-04-23T15:23:11.494Z,100997.22
2018-04-23T15:25:39.966Z,100996.39
2018-04-23T15:28:08.405Z,100994.52
2018-04-23T15:30:36.789Z,100999.33
2018-04-23T15:33:05.216Z,100996.11
2018-04-23T15:35:33.682Z,101009.38
2018-04-23T15:38:02.076Z,101007.78
2018-04-23T15:40:30.484Z,101008.12
2018-04-23T15:42:58.871Z,101007.40
2018-04-23T15:45:27.269Z,101007.31
2018-04-23T15:47:56.422Z,101009.70
2018-04-23T15:50:24.857Z,101013.16
2018-04-23T15:52:53.297Z,101009.44
2018-04-23T15:55:21.717Z,101007.16
2018-04-23T15:57:50.949Z,101005.96
2018-04-23T16:00:19.347Z,101014.75
2018-04-23T16:02:47.731Z,101014.99
2018-04-23T16:05:16.119Z,101015.41
2018-04-23T16:07:44.554Z,101007.43
2018-04-23T16:10:13.701Z,101006.92
2018-04-23T16:12:42.172Z,101009.22
2018-04-23T16:15:10.574Z,101012.17
2018-04-23T16:17:38.992Z,101009.39
2018-04-23T16:20:07.469Z,101014.87
2018-04-23T16:22:36.609Z,101021.16
2018-04-23T16:25:05.242Z,101016.08
2018-04-23T16:27:33.642Z,101026.33
2018-04-23T16:30:02.064Z,101022.28
2018-04-23T16:32:30.415Z,101017.42
2018-04-23T16:34:58.824Z,101018.34
2018-04-23T16:37:28.001Z,101027.92
2018-04-23T16:39:56.397Z,101026.14
2018-04-23T16:42:25.614Z,101027.31
2018-04-23T16:44:54.091Z,101031.14
2018-04-23T16:47:22.440Z,101037.39
2018-04-23T16:49:50.859Z,101029.70
2018-04-23T16:52:20.009Z,101033.34
2018-04-23T16:54:48.455Z,101030.58
2018-04-23T16:57:17.662Z,101028.41
2018-04-23T16:59:46.039Z,101024.73
2018-04-23T17:02:14.413Z,101027.80
2018-04-23T17:04:43.572Z,101020.05
2018-04-23T17:07:11.988Z,101021.84
2018-04-23T17:09:40.447Z,101025.31
2018-04-23T17:12:08.846Z,101019.42
2018-04-23T17:14:37.290Z,101025.62
2018-04-23T17:17:05.703Z,101020.51
2018-04-23T17:19:34.068Z,101023.98
2018-04-23T17:22:02.470Z,101015.79
2018-04-23T17:24:31.015Z,101022.31
2018-04-23T17:26:59.391Z,101025.30
2018-04-23T17:29:27.849Z,101024.05
2018-04-23T17:31:56.215Z,101027.92
2018-04-23T17:34:24.626Z,101031.98
2018-04-23T17:36:53.782Z,101035.02
2018-04-23T17:39:22.207Z,101026.84
2018-04-23T17:41:51.363Z,101030.20
2018-04-23T17:44:19.811Z,101037.01
2018-04-23T17:46:48.196Z,101029.47
2018-04-23T17:49:16.590Z,101039.78
2018-04-23T17:51:45.001Z,101041.12
2018-04-23T17:54:13.398Z,101041.20
2018-04-23T17:56:41.795Z,101050.55
2018-04-23T17:59:10.178Z,101043.66
2018-04-23T18:01:39.368Z,101046.34
2018-04-23T18:04:07.905Z,101047.22
2018-04-23T18:06:36.256Z,101051.25
2018-04-23T18:09:06.291Z,101054.33
2018-04-23T18:11:35.502Z,101047.80
2018-04-23T18:14:03.935Z,101048.83
2018-04-23T18:16:32.346Z,101054.97
2018-04-23T18:19:01.542Z,101054.13
2018-04-23T18:21:29.933Z,101053.77
2018-04-23T18:23:59.113Z,101057.23
2018-04-23T18:26:27.578Z,101055.48
2018-04-23T18:28:56.339Z,101052.94
2018-04-23T18:31:24.761Z,101060.02
2018-04-23T18:33:53.186Z,101050.47
2018-04-23T18:36:22.371Z,101052.17
2018-04-23T18:38:50.813Z,101058.72
2018-04-23T18:41:19.977Z,101053.91
2018-04-23T18:43:48.470Z,101050.39
2018-04-23T18:46:16.889Z,101050.82
2018-04-23T18:48:46.047Z,101063.84
2018-04-23T18:51:15.263Z,101065.11
2018-04-23T18:53:44.430Z,101068.08
2018-04-23T18:56:12.894Z,101070.14
2018-04-23T18:58:41.298Z,101071.81
2018-04-23T19:01:10.467Z,101082.20
2018-04-23T19:03:38.932Z,101081.71
2018-04-23T19:06:07.341Z,101077.80
2018-04-23T19:08:35.754Z,101087.81
2018-04-23T19:11:04.970Z,101088.25
2018-04-23T19:13:34.189Z,101083.45
2018-04-23T19:16:02.593Z,101082.27
2018-04-23T19:18:31.135Z,101090.48
2018-04-23T19:21:04.202Z,101095.69
2018-04-23T19:23:32.621Z,101102.20
2018-04-23T19:26:01.049Z,101099.53
2018-04-23T19:28:29.478Z,101108.63
2018-04-23T19:30:59.242Z,101106.47
2018-04-23T19:33:27.759Z,101110.73
2018-04-23T19:35:57.671Z,101113.78
2018-04-23T19:38:26.116Z,101125.50
2018-04-23T19:40:54.549Z,101128.12
2018-04-23T19:43:22.997Z,101121.16
2018-04-23T19:45:51.407Z,101130.32
2018-04-23T19:48:19.806Z,101134.67
2018-04-23T19:50:48.222Z,101139.36
2018-04-23T19:53:16.644Z,101145.42
2018-04-23T19:55:45.058Z,101142.34
2018-04-23T19:58:14.257Z,101141.51
2018-04-23T20:00:42.711Z,101135.98
2018-04-23T20:03:11.181Z,101140.67
2018-04-23T20:05:39.592Z,101146.26
2018-04-23T20:08:07.979Z,101144.92
2018-04-23T20:10:36.419Z,101145.25
2018-04-23T20:13:04.820Z,101146.09
2018-04-23T20:15:33.206Z,101145.69
2018-04-23T20:18:01.642Z,101141.77
2018-04-23T20:20:30.790Z,101150.00
2018-04-23T20:23:00.042Z,101144.78
2018-04-23T20:25:28.361Z,101146.59
2018-04-23T20:27:56.746Z,101145.61
2018-04-23T20:30:25.130Z,101147.75
2018-04-23T20:32:54.273Z,101146.88
2018-04-23T20:35:22.659Z,101148.62
2018-04-23T20:37:51.094Z,101141.63
2018-04-23T20:40:19.485Z,101143.36
2018-04-23T20:42:47.899Z,101147.16
2018-04-23T20:45:16.331Z,101144.98
2018-04-23T20:47:44.737Z,101142.26
2018-04-23T20:50:13.135Z,101149.97
2018-04-23T20:52:42.290Z,101147.27
2018-04-23T20:55:10.721Z,101147.70
2018-04-23T20:57:39.122Z,101150.31
2018-04-23T21:00:07.505Z,101153.40
2018-04-23T21:02:35.931Z,101159.92
2018-04-23T21:05:04.306Z,101159.24
2018-04-23T21:07:32.712Z,101163.89
2018-04-23T21:10:01.122Z,101161.62
2018-04-23T21:12:30.302Z,101164.37
2018-04-23T21:14:58.706Z,101163.84
2018-04-23T21:17:27.085Z,101164.71
2018-04-23T21:19:55.469Z,101165.63
2018-04-23T21:22:23.915Z,101165.86
2018-04-23T21:24:52.285Z,101161.95
2018-04-23T21:27:21.448Z,101166.73
2018-04-23T21:29:49.904Z,101167.60
2018-04-23T21:32:18.347Z,101170.21
2018-04-23T21:34:46.822Z,101166.29
2018-04-23T21:37:15.210Z,101174.94
2018-04-23T21:39:44.375Z,101165.28
2018-04-23T21:42:12.742Z,101165.95
2018-04-23T21:44:41.153Z,101168.77
2018-04-23T21:47:09.557Z,101167.11
2018-04-23T21:49:37.959Z,101170.52
2018-04-23T21:52:07.148Z,101166.87
2018-04-23T21:54:36.298Z,101171.42
2018-04-23T21:57:04.701Z,101177.06
2018-04-23T21:59:33.097Z,101177.78
2018-04-23T22:02:01.501Z,101180.00
2018-04-23T22:04:30.640Z,101182.28
2018-04-23T22:06:59.018Z,101187.39
2018-04-23T22:09:27.419Z,101192.17
2018-04-23T22:11:56.556Z,101192.25
2018-04-23T22:14:24.936Z,101201.57
2018-04-23T22:16:53.327Z,101206.15
2018-04-23T22:19:21.705Z,101199.89
2018-04-23T22:21:50.230Z,101209.81
2018-04-23T22:24:18.666Z,101209.71
2018-04-23T22:26:47.015Z,101210.47
2018-04-23T22:29:15.401Z,101198.22
2018-04-23T22:31:43.794Z,101207.65
2018-04-23T22:34:12.543Z,101202.45
2018-04-23T22:36:40.950Z,101202.13
2018-04-23T22:39:09.336Z,101213.34
2018-04-23T22:41:37.763Z,101207.48
2018-04-23T22:44:06.905Z,101209.66
2018-04-23T22:46:35.300Z,101214.09
2018-04-23T22:49:03.759Z,101204.73
2018-04-23T22:51:32.163Z,101212.61
2018-04-23T22:54:00.546Z,101213.62
2018-04-23T22:56:28.948Z,101223.41
2018-04-23T22:58:57.348Z,101225.47
2018-04-23T23:01:25.749Z,101222.41
2018-04-23T23:03:54.899Z,101229.20
2018-04-23T23:06:23.285Z,101235.05
2018-04-23T23:08:51.741Z,101232.97
2018-04-23T23:11:20.098Z,101235.36
2018-04-23T23:13:49.269Z,101236.94
2018-04-23T23:16:18.501Z,101239.63
2018-04-23T23:18:46.902Z,101232.17
2018-04-23T23:21:16.124Z,101242.15
2018-04-23T23:23:44.516Z,101242.94
2018-04-23T23:26:12.899Z,101244.66
2018-04-23T23:28:41.295Z,101246.84
2018-04-23T23:31:09.711Z,101248.77
2018-04-23T23:33:38.126Z,101253.56
2018-04-23T23:36:07.750Z,101254.49
2018-04-23T23:38:36.114Z,101251.41
2018-04-23T23:41:05.283Z,101249.52
2018-04-23T23:43:33.721Z,101246.41
2018-04-23T23:46:02.096Z,101242.30
2018-04-23T23:48:30.486Z,101243.45
2018-04-23T23:50:58.871Z,101241.27
2018-04-23T23:53:27.286Z,101237.31
2018-04-23T23:55:55.664Z,101240.64
2018-04-23T23:58:24.040Z,101239.98
